TimeEDT,TemperatureF,Dew PointF,Humidity,Sea Level PressureIn,VisibilityMPH,Wind Direction,Wind SpeedMPH,Gust SpeedMPH,PrecipitationIn,Events,Conditions,WindDirDegrees,DateUTC
12:53 AM,51.1,48.0,89,29.93,10.0,NNW,3.5,-,N/A,,Clear,330,2013-09-26 04:53:00
1:53 AM,48.9,46.0,90,29.93,10.0,NNW,8.1,-,N/A,,Clear,330,2013-09-26 05:53:00
2:53 AM,48.9,46.0,90,29.93,10.0,North,3.5,-,N/A,,Clear,350,2013-09-26 06:53:00
3:53 AM,48.9,46.9,93,29.93,10.0,NNW,3.5,-,N/A,,Clear,340,2013-09-26 07:53:00
4:53 AM,48.0,46.0,93,29.94,10.0,WNW,3.5,-,N/A,,Clear,300,2013-09-26 08:53:00
5:53 AM,50.0,46.0,86,29.95,10.0,Calm,Calm,-,N/A,,Clear,0,2013-09-26 09:53:00
6:53 AM,51.1,46.9,86,29.96,10.0,North,3.5,-,N/A,,Clear,360,2013-09-26 10:53:00
7:53 AM,55.0,50.0,83,29.98,10.0,Calm,Calm,-,N/A,,Clear,0,2013-09-26 11:53:00
8:53 AM,59.0,53.1,81,29.99,10.0,NE,8.1,-,N/A,,Clear,40,2013-09-26 12:53:00
9:53 AM,63.0,55.0,75,30.01,10.0,NNE,5.8,-,N/A,,Clear,30,2013-09-26 13:53:00
10:53 AM,66.0,55.9,70,30.01,10.0,NE,5.8,-,N/A,,Clear,40,2013-09-26 14:53:00
11:53 AM,69.1,53.1,57,30.01,10.0,Calm,Calm,-,N/A,,Scattered Clouds,0,2013-09-26 15:53:00
12:53 PM,72.0,54.0,53,30.00,10.0,North,4.6,-,N/A,,Partly Cloudy,350,2013-09-26 16:53:00
1:53 PM,71.1,54.0,55,29.99,10.0,North,6.9,-,N/A,,Overcast,360,2013-09-26 17:53:00
2:53 PM,72.0,55.0,55,29.99,10.0,Variable,3.5,-,N/A,,Mostly Cloudy,0,2013-09-26 18:53:00
3:53 PM,70.0,55.0,59,29.99,10.0,ENE,9.2,-,N/A,,Overcast,60,2013-09-26 19:53:00
4:53 PM,69.1,57.0,65,30.00,10.0,East,6.9,-,N/A,,Mostly Cloudy,80,2013-09-26 20:53:00
5:53 PM,69.1,55.0,61,30.01,10.0,North,-9999.0,-,N/A,,Overcast,0,2013-09-26 21:53:00
6:53 PM,64.9,55.9,73,30.03,10.0,ESE,4.6,-,N/A,,Overcast,110,2013-09-26 22:53:00
7:53 PM,62.1,55.0,78,30.04,10.0,SE,3.5,-,N/A,,Partly Cloudy,130,2013-09-26 23:53:00
8:53 PM,61.0,55.9,83,30.06,10.0,Calm,Calm,-,N/A,,Clear,0,2013-09-27 00:53:00
9:53 PM,57.9,54.0,87,30.07,10.0,East,3.5,-,N/A,,Clear,90,2013-09-27 01:53:00
10:53 PM,57.9,55.0,90,30.08,10.0,Calm,Calm,-,N/A,,Mostly Cloudy,0,2013-09-27 02:53:00
11:53 PM,57.9,55.0,90,30.08,10.0,Calm,Calm,-,N/A,,Overcast,0,2013-09-27 03:53:00